Antlers Park, Minnesota
Current Conditions -  °F | °C
As of 6:46 PM on Monday 24 Nov 2014 (Local Time) from KLVN Reporting Station
Overcast Overcast  
Wind Chill:   Ceiling: 2500
Heat Index: 16°   Visibility: 10mi
Dew Point: 10°   Wind: 17mph
Humidity: 79%   Direction: 300°WNW
Pressure: 29.76"   Gusts: 22mph
Location:  44.6349°N, 93.283°W
Report Text: KLVN 250046Z AUTO 30015G19KT 10SM BKN025 OVC100 M09/M12 A2976 RMK AO2
Loading
Personal Weather Stations






























Interactive Weather Map New forecast layout! Learn more

10-Day Weather Forecast

Advertisements
Track Severe Weather on mobile